Latest Weather Observations for Low Head

IDT60801

Issued at 6:02 am EST Friday 29 May 2015 (issued every 30 minutes, with the page automatically refreshed every 10 minutes)

About weather observations | Map of weather stations | Latest weather observations for TAS | Other Formats
Station Details ID: 091293 Name: LOW HEAD Lat: -41.05 Lon: 146.79 Height: 3.0 m
Data from the previous 72 hours. | See also: Recent months at Low Head
Date/Time
EST
Temp
°C
App
Temp
°C
Dew
Point
Rel
Hum
%
Delta-T
°C
Wind Press
QNH
hPa
Press
MSL
hPa
Rain
since 9 am
mm
Dir
 
Spd
km/h
Gust
km/h
Spd
kts
Gust
kts
29/06:00am 10.8 1.2 6.4 74 2.1 W 46 56 25 30 1012.9 1012.9 -
29/05:30am 10.7 0.7 6.1 73 2.1 W 48 57 26 31 1012.7 1012.7 -
29/05:00am 11.0 0.7 6.4 73 2.2 W 50 59 27 32 1012.4 1012.4 -
29/04:30am 10.6 1.0 6.2 74 2.0 W 46 59 25 32 1012.2 1012.2 -
29/04:00am 10.4 0.4 6.0 74 2.0 W 48 57 26 31 1011.9 1011.9 -
29/03:30am 10.8 0.2 6.7 76 1.9 WSW 52 61 28 33 1011.6 1011.6 -
29/03:00am 11.2 1.0 7.1 76 2.0 W 50 57 27 31 1011.2 1011.2 0.4
29/02:30am 11.0 0.4 7.1 77 1.9 W 52 61 28 33 1011.3 1011.3 -
29/02:00am 11.2 1.0 7.1 76 2.0 W 50 61 27 33 1010.9 1010.9 -
29/01:30am 11.0 0.0 6.9 76 1.9 W 54 65 29 35 1010.7 1010.7 -
29/01:00am 10.3 -2.1 6.3 76 1.9 WNW 61 91 33 49 1010.7 1010.7 -
29/12:58am 10.3 -1.8 5.9 74 2.0 WNW 59 91 32 49 1010.8 1010.8 -
29/12:57am 10.5 -1.3 5.7 72 2.2 WNW 57 91 31 49 1010.8 1010.8 -
29/12:55am 11.9 0.9 6.6 70 2.5 WNW 54 87 29 47 1010.7 1010.7 -
29/12:30am 12.3 3.0 7.4 72 2.4 WNW 46 54 25 29 1010.4 1010.4 -
29/12:00am 12.3 2.5 7.0 70 2.5 WNW 48 56 26 30 1010.5 1010.5 -
 
Date/Time
EST
Temp
°C
App
Temp
°C
Dew
Point
Rel
Hum
%
Delta-T
°C
Wind Press
QNH
hPa
Press
MSL
hPa
Rain
since 9 am
mm
Dir
 
Spd
km/h
Gust
km/h
Spd
kts
Gust
kts
28/11:30pm 12.4 3.1 7.5 72 2.4 W 46 54 25 29 1010.4 1010.4 -
28/11:00pm 12.3 2.1 6.8 69 2.6 W 50 61 27 33 1010.3 1010.3 -
28/10:30pm 12.5 2.1 7.6 72 2.4 W 52 63 28 34 1010.2 1010.2 -
28/10:00pm 12.6 2.9 9.1 79 1.8 W 50 59 27 32 1010.0 1010.0 -
28/09:30pm 12.5 3.7 9.5 82 1.5 W 46 56 25 30 1009.8 1009.8 -
28/09:00pm 12.2 4.8 9.9 86 1.2 WNW 39 50 21 27 1009.9 1009.9 5.0
28/08:30pm 11.8 2.5 9.0 83 1.4 W 48 57 26 31 1010.0 1010.0 -
28/08:23pm 11.6 2.5 8.3 80 1.6 W 46 57 25 31 1009.8 1009.8 -
28/08:00pm 12.8 4.4 9.8 82 1.5 WNW 44 54 24 29 1009.7 1009.7 -
28/07:30pm 12.6 5.6 10.1 85 1.3 WNW 37 46 20 25 1009.4 1009.4 -
28/07:00pm 12.7 3.5 10.8 88 1.0 WNW 50 61 27 33 1009.2 1009.2 -
28/06:30pm 13.5 5.3 11.6 88 1.0 NW 46 54 25 29 1008.9 1008.9 -
28/06:00pm 13.4 4.3 11.3 87 1.1 NW 50 61 27 33 1008.5 1008.5 -
28/05:36pm 13.4 4.7 11.3 87 1.1 NW 48 67 26 36 1008.8 1008.8 -
28/05:30pm 13.2 3.2 10.9 86 1.2 NW 54 67 29 36 1008.9 1008.9 -
28/05:03pm 13.8 4.3 11.0 83 1.5 NW 52 82 28 44 1008.6 1008.6 -
28/05:00pm 14.1 5.4 11.4 84 1.4 NW 48 59 26 32 1008.4 1008.4 -
28/04:30pm 12.6 1.9 9.6 82 1.5 NW 56 83 30 45 1008.6 1008.6 -
28/04:28pm 14.1 4.5 10.9 81 1.7 NW 52 83 28 45 1008.5 1008.5 -
28/04:13pm 14.6 6.8 11.9 84 1.5 NW 44 63 24 34 1008.3 1008.3 -
28/04:00pm 14.0 5.7 11.5 85 1.3 NW 46 57 25 31 1008.3 1008.3 -
28/03:39pm 14.0 6.2 11.7 86 1.2 NW 44 59 24 32 1008.4 1008.4 -
28/03:30pm 13.7 4.6 11.2 85 1.3 WNW 50 59 27 32 1008.2 1008.2 -
28/03:13pm 14.6 4.6 10.8 78 2.0 NNW 54 72 29 39 1008.5 1008.5 -
28/03:10pm 15.4 5.7 11.8 79 2.0 NNW 54 72 29 39 1008.1 1008.1 -
28/03:00pm 15.4 6.8 11.6 78 2.1 NNW 48 57 26 31 1008.1 1008.1 -
28/02:30pm 15.7 7.5 11.7 77 2.2 NNW 46 56 25 30 1008.7 1008.7 -
28/02:00pm 15.5 6.9 11.5 77 2.2 NNW 48 59 26 32 1009.1 1009.1 -
28/01:30pm 15.8 6.4 11.6 76 2.3 NNW 52 65 28 35 1009.5 1009.5 0.2
28/01:00pm 15.6 7.0 11.8 78 2.1 NNW 48 65 26 35 1009.9 1009.9 0.2
28/12:30pm 15.5 8.0 12.6 83 1.6 NNW 44 56 24 30 1010.3 1010.3 0.0
28/12:00pm 15.2 7.9 12.7 85 1.4 NNW 43 54 23 29 1010.6 1010.6 0.0
28/11:30am 15.0 7.7 12.7 86 1.3 N 43 52 23 28 1011.2 1011.2 0.0
28/11:00am 14.9 8.0 12.8 87 1.2 N 41 48 22 26 1011.7 1011.7 0.0
28/10:30am 14.9 8.0 12.8 87 1.2 N 41 48 22 26 1012.0 1012.0 0.0
28/10:00am 14.7 8.1 12.6 87 1.1 N 39 48 21 26 1012.3 1012.3 0.0
28/09:30am 15.1 9.3 12.8 86 1.3 NNW 35 44 19 24 1012.6 1012.6 0.0
28/09:00am 15.1 9.0 13.0 87 1.2 NW 37 41 20 22 1012.9 1012.9 5.0
28/08:30am 14.7 8.5 12.7 88 1.1 NNW 37 43 20 23 1012.9 1012.9 5.0
28/08:00am 14.6 8.4 12.5 87 1.1 NW 37 46 20 25 1012.9 1012.9 5.0
28/07:30am 14.6 8.4 12.5 87 1.1 NW 37 48 20 26 1013.0 1013.0 5.0
28/07:00am 14.7 6.0 12.6 87 1.1 NW 50 61 27 33 1013.0 1013.0 5.0
28/06:36am 14.8 7.4 13.0 89 1.0 NNW 44 63 24 34 1012.5 1012.5 5.0
28/06:30am 14.7 8.3 13.1 90 0.9 NNW 39 50 21 27 1012.6 1012.6 5.0
28/06:00am 14.5 9.4 13.0 91 0.8 N 32 39 17 21 1012.5 1012.5 5.0
28/05:30am 14.4 9.6 13.0 91 0.8 NNW 30 33 16 18 1012.6 1012.6 5.0
28/05:00am 14.2 10.1 12.8 91 0.8 NW 26 32 14 17 1013.0 1013.0 5.0
28/04:30am 14.1 9.6 12.7 91 0.8 NW 28 35 15 19 1013.4 1013.4 5.0
28/04:00am 13.9 8.6 12.5 91 0.8 NW 32 35 17 19 1013.4 1013.4 5.0
28/03:30am 13.9 9.0 12.6 92 0.7 NW 30 35 16 19 1013.4 1013.4 5.0
28/03:00am 14.0 8.7 13.1 94 0.5 NW 33 41 18 22 1013.6 1013.6 5.0
28/02:30am 13.8 6.9 12.9 94 0.5 NW 41 48 22 26 1014.1 1014.1 5.0
28/02:26am 13.8 6.9 12.9 94 0.5 NW 41 54 22 29 1014.1 1014.1 5.0
28/02:15am 14.3 8.6 13.0 92 0.7 NNW 35 56 19 30 1014.0 1014.0 4.8
28/02:00am 14.5 8.9 13.2 92 0.7 NNW 35 43 19 23 1013.8 1013.8 4.2
28/01:30am 14.3 10.7 13.2 93 0.6 N 24 30 13 16 1013.8 1013.8 4.2
28/01:00am 13.9 10.6 12.8 93 0.6 NW 22 26 12 14 1014.2 1014.2 4.2
28/12:30am 13.9 9.4 12.6 92 0.7 NW 28 35 15 19 1014.6 1014.6 3.2
28/12:00am 13.4 11.2 12.1 92 0.7 NW 15 22 8 12 1014.9 1014.9 2.8
 
Date/Time
EST
Temp
°C
App
Temp
°C
Dew
Point
Rel
Hum
%
Delta-T
°C
Wind Press
QNH
hPa
Press
MSL
hPa
Rain
since 9 am
mm
Dir
 
Spd
km/h
Gust
km/h
Spd
kts
Gust
kts
27/11:30pm 13.6 9.3 12.0 90 0.9 NW 26 33 14 18 1015.2 1015.2 1.0
27/11:00pm 14.4 9.6 13.0 91 0.8 NNW 30 35 16 19 1015.2 1015.2 1.0
27/10:30pm 14.0 7.3 12.4 90 0.9 NNW 39 46 21 25 1015.4 1015.4 1.0
27/10:00pm 14.7 9.8 12.7 88 1.1 NNW 30 37 16 20 1015.3 1015.3 0.4
27/09:30pm 14.7 10.6 12.7 88 1.1 NNW 26 30 14 16 1015.4 1015.4 0.4
27/09:00pm 14.6 10.9 12.6 88 1.1 NNW 24 26 13 14 1015.7 1015.7 0.4
27/08:30pm 14.6 10.1 12.5 87 1.1 NNW 28 32 15 17 1015.9 1015.9 0.4
27/08:00pm 14.5 10.3 12.4 87 1.1 NNW 26 32 14 17 1016.0 1016.0 0.4
27/07:30pm 14.5 9.9 12.4 87 1.1 NNW 28 33 15 18 1016.0 1016.0 0.4
27/07:00pm 14.5 9.1 12.2 86 1.2 NNW 32 37 17 20 1015.9 1015.9 0.4
27/06:30pm 14.4 9.4 12.1 86 1.2 NNW 30 39 16 21 1015.8 1015.8 0.4
27/06:00pm 14.5 10.2 12.2 86 1.2 NNW 26 30 14 16 1015.8 1015.8 0.4
27/05:30pm 14.5 9.8 12.0 85 1.4 NNW 28 32 15 17 1015.7 1015.7 0.4
27/05:00pm 14.5 9.7 11.8 84 1.5 NNW 28 33 15 18 1015.7 1015.7 0.4
27/04:30pm 14.5 9.3 11.5 82 1.6 NNW 30 35 16 19 1015.8 1015.8 0.4
27/04:00pm 14.7 9.1 11.5 81 1.7 NNW 32 39 17 21 1015.9 1015.9 0.4
27/03:30pm 14.7 9.2 11.7 82 1.6 NNW 32 39 17 21 1015.9 1015.9 0.4
27/03:00pm 14.5 8.7 11.6 83 1.6 NNW 33 39 18 21 1016.1 1016.1 0.4
27/02:30pm 14.4 8.7 11.7 84 1.4 NNW 33 39 18 21 1016.1 1016.1 0.4
27/02:00pm 14.6 10.0 12.3 86 1.2 N 28 35 15 19 1016.2 1016.2 0.4
27/01:30pm 14.4 9.4 12.3 87 1.1 N 30 35 16 19 1016.4 1016.4 0.4
27/01:00pm 14.1 8.6 12.0 87 1.1 NNW 32 39 17 21 1016.9 1016.9 0.4
27/12:30pm 14.3 8.6 11.8 85 1.3 NNW 33 41 18 22 1017.2 1017.2 0.4
27/12:00pm 14.4 8.7 11.7 84 1.4 N 33 41 18 22 1017.7 1017.7 0.4
27/11:30am 14.2 8.7 11.9 86 1.2 N 32 37 17 20 1018.2 1018.2 0.4
27/11:00am 13.8 8.3 11.7 87 1.1 N 32 35 17 19 1018.6 1018.6 0.2
27/10:30am 14.3 8.8 11.8 85 1.3 N 32 35 17 19 1018.9 1018.9 0.0
27/10:00am 14.5 8.3 11.5 82 1.6 N 35 39 19 21 1018.9 1018.9 0.0
27/09:30am 14.4 8.9 11.7 84 1.4 N 32 37 17 20 1019.2 1019.2 0.0
27/09:00am 14.3 8.5 11.5 83 1.5 N 33 39 18 21 1019.3 1019.3 0.2
27/08:30am 14.3 8.4 11.3 82 1.6 NNE 33 41 18 22 1019.4 1019.4 0.2
27/08:00am 14.4 8.6 11.4 82 1.6 NNE 33 37 18 20 1019.6 1019.6 0.2
27/07:30am 14.2 9.0 11.7 85 1.3 NNE 30 35 16 19 1019.5 1019.5 0.2
27/07:00am 13.9 8.6 11.4 85 1.3 NNE 30 35 16 19 1019.6 1019.6 0.2
27/06:30am 13.9 9.5 11.8 87 1.1 NNE 26 30 14 16 1019.7 1019.7 0.2
27/06:00am 13.7 9.8 12.1 90 0.9 NNE 24 28 13 15 1019.9 1019.9 0.2
27/05:30am 11.9 8.6 11.0 94 0.5 NE 19 24 10 13 1020.2 1020.2 0.2
27/05:00am 10.1 7.9 9.3 95 0.4 SE 11 17 6 9 1020.3 1020.3 0.2
27/04:30am 10.2 7.6 9.4 95 0.4 SE 13 17 7 9 1020.8 1020.8 0.2
27/04:00am 9.7 7.0 8.9 95 0.4 SE 13 17 7 9 1021.0 1021.0 0.2
27/03:30am 10.2 8.0 9.4 95 0.4 ESE 11 17 6 9 1021.4 1021.4 0.2
27/03:00am 10.1 7.9 9.3 95 0.4 E 11 15 6 8 1022.0 1022.0 0.2
27/02:30am 10.0 8.1 9.2 95 0.4 ESE 9 13 5 7 1022.3 1022.3 0.2
27/02:00am 10.0 7.8 9.2 95 0.4 ESE 11 15 6 8 1022.6 1022.6 0.2
27/01:30am 9.2 7.5 8.3 94 0.4 SSE 7 9 4 5 1022.7 1022.7 0.2
27/01:00am 9.2 7.1 8.3 94 0.4 SE 9 11 5 6 1022.8 1022.8 0.2
27/12:30am 9.0 6.9 8.1 94 0.4 SE 9 13 5 7 1023.0 1023.0 0.2
27/12:00am 10.1 8.2 9.0 93 0.5 ESE 9 11 5 6 1023.2 1023.2 0.2
 
Date/Time
EST
Temp
°C
App
Temp
°C
Dew
Point
Rel
Hum
%
Delta-T
°C
Wind Press
QNH
hPa
Press
MSL
hPa
Rain
since 9 am
mm
Dir
 
Spd
km/h
Gust
km/h
Spd
kts
Gust
kts
26/11:30pm 10.3 8.4 9.1 92 0.6 SSE 9 13 5 7 1023.6 1023.6 0.2
26/11:00pm 10.5 7.8 9.1 91 0.7 SE 13 15 7 8 1023.5 1023.5 0.2
26/10:30pm 10.5 7.8 8.9 90 0.8 ESE 13 17 7 9 1023.6 1023.6 0.2
26/10:00pm 10.6 7.5 8.9 89 0.8 E 15 19 8 10 1023.8 1023.8 0.2
26/09:30pm 11.7 10.4 9.8 88 1.0 S 7 11 4 6 1024.0 1024.0 0.2
26/09:00pm 13.3 11.3 11.4 88 1.0 WNW 13 15 7 8 1024.3 1024.3 0.2
26/08:30pm 13.4 11.0 11.5 88 1.0 WNW 15 17 8 9 1024.5 1024.5 0.2
26/08:00pm 13.3 11.7 11.4 88 1.0 WNW 11 13 6 7 1024.4 1024.4 0.2
26/07:30pm 13.4 11.3 11.3 87 1.1 WNW 13 15 7 8 1024.5 1024.5 0.2
26/07:00pm 13.6 11.6 11.5 87 1.1 W 13 13 7 7 1024.5 1024.5 0.2
26/06:30pm 13.6 11.6 11.5 87 1.1 W 13 15 7 8 1024.6 1024.6 0.2
26/06:00pm 13.6 11.9 11.3 86 1.2 WNW 11 13 6 7 1024.7 1024.7 0.2
26/05:30pm 13.8 11.4 11.5 86 1.2 WNW 15 17 8 9 1024.6 1024.6 0.2
26/05:00pm 13.8 11.0 11.3 85 1.3 WNW 17 20 9 11 1024.5 1024.5 0.2
26/04:30pm 14.1 10.9 11.4 84 1.4 WNW 19 24 10 13 1024.7 1024.7 0.2
26/04:00pm 14.6 11.3 11.6 82 1.6 WNW 20 24 11 13 1024.7 1024.7 0.2
26/03:30pm 15.1 11.9 11.9 81 1.7 WNW 20 24 11 13 1024.9 1024.9 0.2
26/03:00pm 15.2 12.0 12.0 81 1.7 WNW 20 24 11 13 1025.0 1025.0 0.2
26/02:30pm 15.3 12.8 12.2 82 1.7 WNW 17 20 9 11 1025.0 1025.0 0.2
26/02:00pm 14.4 12.4 11.6 83 1.5 W 13 15 7 8 1025.1 1025.1 0.2
26/01:30pm 14.5 12.6 11.8 84 1.5 W 13 15 7 8 1025.5 1025.5 0.2
26/01:00pm 14.3 12.4 11.8 85 1.3 W 13 17 7 9 1025.7 1025.7 0.2
26/12:30pm 13.9 11.2 11.6 86 1.2 W 17 20 9 11 1026.1 1026.1 0.2
26/12:00pm 13.8 11.1 11.8 88 1.1 W 17 20 9 11 1026.5 1026.5 0.2
26/11:30am 13.3 10.2 11.5 89 1.0 W 19 20 10 11 1026.8 1026.8 0.2
26/11:00am 12.9 9.1 11.1 89 0.9 W 22 26 12 14 1027.2 1027.2 0.2
26/10:30am 12.8 9.3 11.0 89 0.9 W 20 22 11 12 1027.4 1027.4 0.2
26/10:00am 12.7 9.5 11.1 90 0.8 W 19 22 10 12 1027.4 1027.4 0.2
26/09:30am 12.4 9.9 11.0 91 0.7 WSW 15 19 8 10 1027.4 1027.4 0.0
26/09:00am 12.0 10.5 10.7 92 0.7 WSW 9 13 5 7 1027.4 1027.4 0.0
26/08:30am 11.5 9.9 10.2 92 0.7 SSW 9 11 5 6 1027.6 1027.6 0.0
26/08:00am 11.7 9.4 10.4 92 0.7 SW 13 15 7 8 1027.6 1027.6 0.0
26/07:30am 11.9 8.9 10.5 91 0.7 W 17 19 9 10 1027.4 1027.4 0.0
26/07:00am 11.8 9.1 10.4 91 0.7 WSW 15 19 8 10 1027.1 1027.1 0.0
26/06:30am 11.9 8.5 10.5 91 0.7 W 19 20 10 11 1027.2 1027.2 0.0

Other Formats:

Comma delimited format used in spreadsheet applications
http://www.bom.gov.au/fwo/IDT60801/IDT60801.95964.axf

JavaScript Object Notation format (JSON) in row-major order
http://www.bom.gov.au/fwo/IDT60801/IDT60801.95964.json